ETD7UV OMAA-VIDP
Flight info
| Callsign | ETD7UV |
|---|---|
| Flight time | N/A |
| Altitude | 35000 |
| Route | KANIP N318 LAKLU G216 KC Z306 RK G452 LKA LKA7H |
| Aircraft | A21N/M-SDE2E3FGHIJ1RWXY/LB1 |
Departure
| Time | 2026-05-04 11:37 |
|---|---|
| Airport | Zayed International Airport (OMAA) |
Arrival
| Time | N/A |
|---|---|
| Airport | Indira Gandhi International Airport (VIDP) |
| Time | Latitude | Longitude | Altitude | Speed | Heading |
|---|---|---|---|---|---|
| 2026-05-04 10:54 | 24.44733 | 54.64259 | 90 ft | 0 kts | 72° |
| 2026-05-04 11:19 | 24.44725 | 54.64233 | 90 ft | 2 kts | 72° |
| 2026-05-04 11:19 | 24.44720 | 54.64218 | 90 ft | 2 kts | 72° |
| 2026-05-04 11:19 | 24.44716 | 54.64202 | 90 ft | 2 kts | 72° |
| 2026-05-04 11:19 | 24.44711 | 54.64187 | 90 ft | 2 kts | 72° |
| 2026-05-04 11:20 | 24.44706 | 54.64171 | 90 ft | 2 kts | 72° |
| 2026-05-04 11:20 | 24.44700 | 54.64156 | 90 ft | 2 kts | 37° |
| 2026-05-04 11:20 | 24.44686 | 54.64150 | 90 ft | 2 kts | 359° |
| 2026-05-04 11:20 | 24.44671 | 54.64155 | 90 ft | 2 kts | 332° |
| 2026-05-04 11:22 | 24.44634 | 54.64171 | 90 ft | 0 kts | 339° |
| 2026-05-04 11:24 | 24.44803 | 54.63987 | 90 ft | 11 kts | 251° |
| 2026-05-04 11:25 | 24.44772 | 54.63910 | 90 ft | 11 kts | 246° |
| 2026-05-04 11:25 | 24.44741 | 54.63833 | 90 ft | 11 kts | 246° |
| 2026-05-04 11:25 | 24.44702 | 54.63760 | 90 ft | 11 kts | 220° |
| 2026-05-04 11:26 | 24.44582 | 54.63782 | 90 ft | 11 kts | 128° |
| 2026-05-04 11:27 | 24.44157 | 54.64385 | 90 ft | 17 kts | 128° |
| 2026-05-04 11:28 | 24.44079 | 54.64495 | 90 ft | 18 kts | 128° |
| 2026-05-04 11:28 | 24.43995 | 54.64613 | 90 ft | 20 kts | 128° |
| 2026-05-04 11:28 | 24.43908 | 54.64736 | 90 ft | 20 kts | 128° |
| 2026-05-04 11:28 | 24.43823 | 54.64856 | 90 ft | 19 kts | 128° |
| 2026-05-04 11:29 | 24.43739 | 54.64974 | 90 ft | 19 kts | 127° |
| 2026-05-04 11:29 | 24.43659 | 54.65087 | 90 ft | 18 kts | 128° |
| 2026-05-04 11:29 | 24.43580 | 54.65199 | 90 ft | 18 kts | 128° |
| 2026-05-04 11:29 | 24.43503 | 54.65308 | 90 ft | 18 kts | 128° |
| 2026-05-04 11:31 | 24.42881 | 54.66191 | 91 ft | 22 kts | 128° |
| 2026-05-04 11:33 | 24.42327 | 54.66836 | 91 ft | 8 kts | 218° |
| 2026-05-04 11:33 | 24.42304 | 54.66817 | 91 ft | 0 kts | 218° |
| 2026-05-04 11:34 | 24.42302 | 54.66815 | 91 ft | 0 kts | 219° |
| 2026-05-04 11:34 | 24.42293 | 54.66807 | 91 ft | 2 kts | 219° |
| 2026-05-04 11:35 | 24.42273 | 54.66790 | 91 ft | 4 kts | 217° |
| 2026-05-04 11:35 | 24.42242 | 54.66765 | 91 ft | 6 kts | 218° |
| 2026-05-04 11:35 | 24.42204 | 54.66732 | 91 ft | 7 kts | 219° |
| 2026-05-04 11:35 | 24.42191 | 54.66686 | 91 ft | 6 kts | 309° |
| 2026-05-04 11:36 | 24.42216 | 54.66651 | 91 ft | 5 kts | 308° |
| 2026-05-04 11:36 | 24.42259 | 54.66591 | 91 ft | 25 kts | 308° |
| 2026-05-04 11:36 | 24.42516 | 54.66228 | 91 ft | 92 kts | 307° |
| 2026-05-04 11:36 | 24.43037 | 54.65494 | 91 ft | 148 kts | 308° |
| 2026-05-04 11:37 | 24.43771 | 54.64498 | 285 ft | 175 kts | 306° |
| 2026-05-04 11:37 | 24.44477 | 54.63437 | 880 ft | 177 kts | 309° |
| 2026-05-04 11:37 | 24.45230 | 54.62389 | 1453 ft | 174 kts | 310° |
| 2026-05-04 11:37 | 24.45978 | 54.61355 | 1903 ft | 175 kts | 310° |
| 2026-05-04 11:38 | 24.46740 | 54.60307 | 2345 ft | 176 kts | 313° |
| 2026-05-04 11:38 | 24.47760 | 54.59586 | 2741 ft | 180 kts | 347° |
| 2026-05-04 11:38 | 24.49009 | 54.59781 | 3123 ft | 190 kts | 26° |
| 2026-05-04 11:38 | 24.49941 | 54.60860 | 3384 ft | 211 kts | 62° |
| 2026-05-04 11:39 | 24.50207 | 54.62517 | 3630 ft | 230 kts | 87° |
| 2026-05-04 11:39 | 24.50136 | 54.64319 | 3880 ft | 244 kts | 91° |
| 2026-05-04 11:40 | 24.48670 | 54.77035 | 6423 ft | 302 kts | 118° |
| 2026-05-04 11:41 | 24.47562 | 54.78989 | 7005 ft | 304 kts | 123° |
| 2026-05-04 11:41 | 24.46382 | 54.80933 | 7572 ft | 306 kts | 122° |
| 2026-05-04 11:41 | 24.45220 | 54.82914 | 8125 ft | 308 kts | 121° |
| 2026-05-04 11:41 | 24.44095 | 54.84911 | 8661 ft | 311 kts | 120° |
| 2026-05-04 11:42 | 24.42985 | 54.86943 | 9235 ft | 312 kts | 118° |
| 2026-05-04 11:42 | 24.41882 | 54.88998 | 9756 ft | 314 kts | 118° |
| 2026-05-04 11:42 | 24.40794 | 54.91043 | 10299 ft | 316 kts | 118° |
| 2026-05-04 11:42 | 24.39675 | 54.93157 | 10817 ft | 318 kts | 118° |
| 2026-05-04 11:43 | 24.38570 | 54.95249 | 11315 ft | 320 kts | 118° |
| 2026-05-04 11:43 | 24.37456 | 54.97360 | 11783 ft | 324 kts | 118° |
| 2026-05-04 11:43 | 24.36303 | 54.99544 | 12037 ft | 337 kts | 118° |
| 2026-05-04 11:43 | 24.35107 | 55.01811 | 12248 ft | 350 kts | 118° |
| 2026-05-04 11:44 | 24.33870 | 55.04155 | 12445 ft | 362 kts | 118° |
| 2026-05-04 11:44 | 24.32593 | 55.06571 | 12685 ft | 374 kts | 118° |
| 2026-05-04 11:44 | 24.31254 | 55.09103 | 12908 ft | 385 kts | 118° |
| 2026-05-04 11:44 | 24.29905 | 55.11651 | 13316 ft | 389 kts | 118° |
| 2026-05-04 11:45 | 24.28564 | 55.14183 | 13846 ft | 390 kts | 118° |
| 2026-05-04 11:45 | 24.27194 | 55.16768 | 14323 ft | 392 kts | 118° |
| 2026-05-04 11:45 | 24.25821 | 55.19358 | 14778 ft | 395 kts | 118° |
| 2026-05-04 11:45 | 24.24446 | 55.21952 | 15234 ft | 397 kts | 118° |
| 2026-05-04 11:46 | 24.23060 | 55.24566 | 15681 ft | 399 kts | 118° |
| 2026-05-04 11:46 | 24.21665 | 55.27193 | 16139 ft | 401 kts | 118° |
| 2026-05-04 11:46 | 24.20248 | 55.29861 | 16584 ft | 404 kts | 118° |
| 2026-05-04 11:46 | 24.18857 | 55.32494 | 17004 ft | 406 kts | 117° |
| 2026-05-04 11:47 | 24.17528 | 55.35263 | 17440 ft | 408 kts | 114° |
| 2026-05-04 11:47 | 24.16369 | 55.38078 | 17875 ft | 410 kts | 111° |
| 2026-05-04 11:47 | 24.15262 | 55.40949 | 18288 ft | 412 kts | 111° |
| 2026-05-04 11:47 | 24.14151 | 55.43853 | 18692 ft | 415 kts | 111° |
| 2026-05-04 11:48 | 24.13036 | 55.46768 | 19107 ft | 417 kts | 111° |
| 2026-05-04 11:48 | 24.11918 | 55.49683 | 19509 ft | 420 kts | 111° |
| 2026-05-04 11:48 | 24.10776 | 55.52652 | 20041 ft | 419 kts | 111° |
| 2026-05-04 11:48 | 24.09660 | 55.55554 | 20524 ft | 419 kts | 112° |
| 2026-05-04 11:49 | 24.08528 | 55.58488 | 20930 ft | 421 kts | 112° |
| 2026-05-04 11:49 | 24.07392 | 55.61429 | 21313 ft | 423 kts | 112° |
| 2026-05-04 11:49 | 24.06199 | 55.64414 | 21702 ft | 426 kts | 114° |
| 2026-05-04 11:49 | 24.04883 | 55.67291 | 22069 ft | 428 kts | 117° |
| 2026-05-04 11:50 | 24.03497 | 55.70206 | 22449 ft | 431 kts | 117° |
| 2026-05-04 11:50 | 24.02116 | 55.73093 | 22805 ft | 433 kts | 117° |
| 2026-05-04 11:50 | 24.00724 | 55.76006 | 23130 ft | 436 kts | 118° |
| 2026-05-04 11:50 | 23.99311 | 55.78965 | 23445 ft | 439 kts | 118° |
| 2026-05-04 11:51 | 23.97895 | 55.81930 | 23751 ft | 441 kts | 118° |
| 2026-05-04 11:51 | 23.96469 | 55.84917 | 24036 ft | 444 kts | 118° |
| 2026-05-04 11:51 | 23.95043 | 55.87904 | 24314 ft | 447 kts | 118° |
| 2026-05-04 11:51 | 23.93600 | 55.90927 | 24581 ft | 450 kts | 118° |
| 2026-05-04 11:52 | 23.92148 | 55.93967 | 24840 ft | 453 kts | 118° |
| 2026-05-04 11:52 | 23.90687 | 55.97024 | 25096 ft | 455 kts | 118° |
| 2026-05-04 11:52 | 23.89210 | 56.00109 | 25343 ft | 458 kts | 118° |
| 2026-05-04 11:52 | 23.87729 | 56.03199 | 25578 ft | 461 kts | 118° |
| 2026-05-04 11:53 | 23.86238 | 56.06303 | 25827 ft | 463 kts | 118° |
| 2026-05-04 11:53 | 23.84751 | 56.09398 | 26112 ft | 464 kts | 118° |
| 2026-05-04 11:53 | 23.83255 | 56.12511 | 26361 ft | 465 kts | 118° |
| 2026-05-04 11:53 | 23.81733 | 56.15678 | 26587 ft | 468 kts | 118° |
| 2026-05-04 11:55 | 23.70988 | 56.37995 | 28033 ft | 482 kts | 118° |
| 2026-05-04 11:55 | 23.69425 | 56.41235 | 28288 ft | 483 kts | 118° |
| 2026-05-04 11:56 | 23.67844 | 56.44508 | 28477 ft | 485 kts | 118° |
| 2026-05-04 11:56 | 23.66277 | 56.47749 | 28649 ft | 487 kts | 118° |
| 2026-05-04 11:56 | 23.64709 | 56.50992 | 28857 ft | 488 kts | 118° |
| 2026-05-04 11:56 | 23.63125 | 56.54265 | 29127 ft | 488 kts | 118° |
| 2026-05-04 11:57 | 23.61536 | 56.57547 | 29417 ft | 487 kts | 118° |
| 2026-05-04 11:57 | 23.59964 | 56.60792 | 29712 ft | 486 kts | 119° |
| 2026-05-04 11:57 | 23.58376 | 56.64065 | 29972 ft | 486 kts | 118° |
| 2026-05-04 11:57 | 23.56810 | 56.67294 | 30217 ft | 486 kts | 119° |
| 2026-05-04 11:58 | 23.55223 | 56.70564 | 30477 ft | 485 kts | 119° |
| 2026-05-04 11:58 | 23.53655 | 56.73793 | 30739 ft | 484 kts | 119° |
| 2026-05-04 11:58 | 23.52082 | 56.77031 | 30977 ft | 483 kts | 119° |
| 2026-05-04 11:58 | 23.50514 | 56.80253 | 31206 ft | 483 kts | 119° |
| 2026-05-04 11:59 | 23.48942 | 56.83485 | 31434 ft | 482 kts | 119° |
| 2026-05-04 11:59 | 23.47366 | 56.86722 | 31673 ft | 482 kts | 119° |
| 2026-05-04 11:59 | 23.45817 | 56.89905 | 31900 ft | 481 kts | 119° |
| 2026-05-04 11:59 | 23.44252 | 56.93115 | 32126 ft | 480 kts | 119° |
| 2026-05-04 12:00 | 23.42688 | 56.96320 | 32347 ft | 479 kts | 119° |
| 2026-05-04 12:00 | 23.41192 | 56.99549 | 32537 ft | 480 kts | 115° |
| 2026-05-04 12:00 | 23.40029 | 57.02937 | 32716 ft | 481 kts | 107° |
| 2026-05-04 12:00 | 23.39260 | 57.06491 | 32881 ft | 481 kts | 99° |
| 2026-05-04 12:01 | 23.38914 | 57.10080 | 33044 ft | 481 kts | 91° |
| 2026-05-04 12:01 | 23.38986 | 57.13738 | 33211 ft | 480 kts | 83° |
| 2026-05-04 12:02 | 23.42820 | 57.35102 | 34216 ft | 480 kts | 77° |
| 2026-05-04 12:03 | 23.43466 | 57.38624 | 34383 ft | 480 kts | 77° |
| 2026-05-04 12:03 | 23.44116 | 57.42193 | 34554 ft | 480 kts | 77° |
| 2026-05-04 12:03 | 23.44762 | 57.45750 | 34702 ft | 480 kts | 77° |
| 2026-05-04 12:03 | 23.45406 | 57.49295 | 34813 ft | 480 kts | 77° |
| 2026-05-04 12:04 | 23.46703 | 57.56458 | 34817 ft | 486 kts | 77° |
| 2026-05-04 12:04 | 23.48015 | 57.63727 | 34789 ft | 492 kts | 77° |
| 2026-05-04 12:05 | 23.49332 | 57.71038 | 34763 ft | 496 kts | 77° |
| 2026-05-04 12:05 | 23.50658 | 57.78431 | 34754 ft | 498 kts | 77° |
| 2026-05-04 12:06 | 23.51984 | 57.85856 | 34744 ft | 498 kts | 77° |
| 2026-05-04 12:06 | 23.53295 | 57.93190 | 34744 ft | 497 kts | 77° |
| 2026-05-04 12:07 | 23.54615 | 58.00604 | 34748 ft | 497 kts | 77° |
| 2026-05-04 12:07 | 23.55924 | 58.07978 | 34744 ft | 497 kts | 77° |
| 2026-05-04 12:08 | 23.57231 | 58.15360 | 34740 ft | 498 kts | 77° |
| 2026-05-04 12:08 | 23.58537 | 58.22761 | 34736 ft | 497 kts | 77° |
| 2026-05-04 12:09 | 23.59816 | 58.30134 | 34736 ft | 497 kts | 77° |
| 2026-05-04 12:09 | 23.61055 | 58.37544 | 34732 ft | 498 kts | 77° |
| 2026-05-04 12:10 | 23.62285 | 58.44916 | 34734 ft | 497 kts | 77° |
| 2026-05-04 12:10 | 23.63521 | 58.52323 | 34725 ft | 498 kts | 77° |
| 2026-05-04 12:11 | 23.64754 | 58.59725 | 34725 ft | 498 kts | 77° |
| 2026-05-04 12:11 | 23.65985 | 58.67125 | 34724 ft | 498 kts | 78° |
| 2026-05-04 12:12 | 23.67211 | 58.74531 | 34729 ft | 498 kts | 78° |
| 2026-05-04 12:12 | 23.68435 | 58.81943 | 34729 ft | 498 kts | 78° |
| 2026-05-04 12:14 | 23.73315 | 59.11643 | 34726 ft | 498 kts | 77° |
| 2026-05-04 12:15 | 23.74527 | 59.19071 | 34721 ft | 498 kts | 77° |
| 2026-05-04 12:15 | 23.75729 | 59.26466 | 34727 ft | 498 kts | 77° |
| 2026-05-04 12:16 | 23.76937 | 59.33914 | 34714 ft | 498 kts | 77° |
| 2026-05-04 12:16 | 23.78134 | 59.41315 | 34718 ft | 498 kts | 77° |
| 2026-05-04 12:17 | 23.79334 | 59.48761 | 34716 ft | 499 kts | 77° |
| 2026-05-04 12:17 | 23.80522 | 59.56172 | 34716 ft | 498 kts | 77° |
| 2026-05-04 12:18 | 23.81712 | 59.63636 | 34712 ft | 498 kts | 77° |
| 2026-05-04 12:18 | 23.82896 | 59.71080 | 34710 ft | 499 kts | 78° |
| 2026-05-04 12:19 | 23.84074 | 59.78517 | 34711 ft | 499 kts | 77° |
| 2026-05-04 12:19 | 23.85252 | 59.85969 | 34710 ft | 499 kts | 77° |
| 2026-05-04 12:20 | 23.86424 | 59.93399 | 34707 ft | 499 kts | 77° |
| 2026-05-04 12:20 | 23.87603 | 60.00900 | 34709 ft | 499 kts | 77° |
| 2026-05-04 12:21 | 23.88766 | 60.08313 | 34708 ft | 499 kts | 77° |
| 2026-05-04 12:21 | 23.89932 | 60.15781 | 34706 ft | 499 kts | 77° |
| 2026-05-04 12:22 | 23.91096 | 60.23250 | 34708 ft | 499 kts | 77° |
| 2026-05-04 12:22 | 23.92253 | 60.30705 | 34708 ft | 499 kts | 77° |
| 2026-05-04 12:23 | 23.93405 | 60.38154 | 34703 ft | 500 kts | 77° |
| 2026-05-04 12:23 | 23.94560 | 60.45633 | 34703 ft | 499 kts | 77° |
| 2026-05-04 12:24 | 23.95709 | 60.53113 | 34705 ft | 500 kts | 77° |
| 2026-05-04 12:24 | 23.96849 | 60.60549 | 34706 ft | 500 kts | 77° |
| 2026-05-04 12:25 | 23.97989 | 60.68015 | 34703 ft | 500 kts | 78° |
| 2026-05-04 12:25 | 23.99130 | 60.75515 | 34704 ft | 500 kts | 78° |
| 2026-05-04 12:26 | 24.00261 | 60.82970 | 34707 ft | 500 kts | 78° |
| 2026-05-04 12:26 | 24.01397 | 60.90484 | 34703 ft | 500 kts | 78° |
| 2026-05-04 12:27 | 24.02528 | 60.97992 | 34703 ft | 501 kts | 78° |
| 2026-05-04 12:27 | 24.03648 | 61.05448 | 34709 ft | 501 kts | 78° |
| 2026-05-04 12:28 | 24.04777 | 61.12991 | 34710 ft | 501 kts | 78° |
| 2026-05-04 12:28 | 24.05893 | 61.20470 | 34708 ft | 501 kts | 78° |
| 2026-05-04 12:29 | 24.07010 | 61.27983 | 34710 ft | 502 kts | 78° |
| 2026-05-04 12:29 | 24.08121 | 61.35488 | 34714 ft | 501 kts | 78° |
| 2026-05-04 12:30 | 24.09228 | 61.43030 | 34715 ft | 502 kts | 78° |
| 2026-05-04 12:30 | 24.10330 | 61.50554 | 34717 ft | 502 kts | 78° |
| 2026-05-04 12:31 | 24.11435 | 61.58097 | 34717 ft | 502 kts | 77° |
| 2026-05-04 12:31 | 24.13409 | 61.65313 | 34720 ft | 497 kts | 66° |
| 2026-05-04 12:32 | 24.16855 | 61.76010 | 34720 ft | 498 kts | 67° |
| 2026-05-04 12:33 | 24.19376 | 61.83067 | 34724 ft | 495 kts | 63° |
| 2026-05-04 12:33 | 24.22105 | 61.89978 | 34724 ft | 495 kts | 63° |
| 2026-05-04 12:34 | 24.24773 | 61.96886 | 34726 ft | 496 kts | 63° |
| 2026-05-04 12:34 | 24.27441 | 62.03914 | 34727 ft | 497 kts | 63° |
| 2026-05-04 12:35 | 24.30054 | 62.10852 | 34726 ft | 497 kts | 63° |
| 2026-05-04 12:35 | 24.32676 | 62.17839 | 34726 ft | 496 kts | 63° |
| 2026-05-04 12:36 | 24.35300 | 62.24840 | 34726 ft | 496 kts | 63° |
| 2026-05-04 12:36 | 24.37916 | 62.31837 | 34726 ft | 496 kts | 63° |
| 2026-05-04 12:37 | 24.40513 | 62.38790 | 34724 ft | 497 kts | 63° |
| 2026-05-04 12:37 | 24.43132 | 62.45819 | 34723 ft | 496 kts | 63° |
| 2026-05-04 12:38 | 24.45738 | 62.52816 | 34723 ft | 497 kts | 63° |
| 2026-05-04 12:38 | 24.48350 | 62.59848 | 34722 ft | 497 kts | 63° |
| 2026-05-04 12:39 | 24.50938 | 62.66822 | 34717 ft | 497 kts | 63° |
| 2026-05-04 12:39 | 24.53539 | 62.73846 | 34718 ft | 497 kts | 63° |
| 2026-05-04 12:40 | 24.56132 | 62.80856 | 34717 ft | 497 kts | 63° |
| 2026-05-04 12:40 | 24.58725 | 62.87887 | 34714 ft | 497 kts | 63° |
| 2026-05-04 12:41 | 24.61309 | 62.94893 | 34717 ft | 497 kts | 63° |
| 2026-05-04 12:41 | 24.63887 | 63.01901 | 34716 ft | 497 kts | 63° |
| 2026-05-04 12:42 | 24.66474 | 63.08947 | 34709 ft | 497 kts | 63° |
| 2026-05-04 12:42 | 24.69064 | 63.16009 | 34706 ft | 497 kts | 63° |
| 2026-05-04 12:43 | 24.71624 | 63.23003 | 34706 ft | 497 kts | 63° |
| 2026-05-04 12:43 | 24.74196 | 63.30042 | 34706 ft | 497 kts | 63° |
| 2026-05-04 12:44 | 24.76768 | 63.37091 | 34703 ft | 497 kts | 63° |
| 2026-05-04 12:44 | 24.79345 | 63.44165 | 34700 ft | 497 kts | 63° |
| 2026-05-04 12:45 | 24.81902 | 63.51201 | 34702 ft | 497 kts | 63° |
| 2026-05-04 12:45 | 24.84457 | 63.58238 | 34702 ft | 497 kts | 63° |
| 2026-05-04 12:46 | 24.87022 | 63.65320 | 34695 ft | 497 kts | 63° |
| 2026-05-04 12:46 | 24.89562 | 63.72338 | 34691 ft | 498 kts | 63° |
| 2026-05-04 12:47 | 24.92130 | 63.79449 | 34691 ft | 498 kts | 63° |
| 2026-05-04 12:47 | 24.94669 | 63.86495 | 34688 ft | 498 kts | 63° |
| 2026-05-04 12:48 | 24.97219 | 63.93581 | 34689 ft | 498 kts | 63° |
| 2026-05-04 12:48 | 24.99750 | 64.00626 | 34686 ft | 498 kts | 63° |
| 2026-05-04 12:49 | 25.02292 | 64.07716 | 34683 ft | 498 kts | 63° |
| 2026-05-04 12:49 | 25.04840 | 64.14831 | 34681 ft | 498 kts | 63° |
| 2026-05-04 12:50 | 25.07379 | 64.21933 | 34677 ft | 499 kts | 63° |
| 2026-05-04 12:50 | 25.09914 | 64.29039 | 34673 ft | 498 kts | 63° |
| 2026-05-04 12:51 | 25.12449 | 64.36158 | 34676 ft | 498 kts | 63° |
| 2026-05-04 12:51 | 25.14971 | 64.43251 | 34671 ft | 498 kts | 62° |
| 2026-05-04 12:52 | 25.17495 | 64.50365 | 34670 ft | 499 kts | 62° |
| 2026-05-04 12:52 | 25.20006 | 64.57452 | 34667 ft | 499 kts | 63° |
| 2026-05-04 12:53 | 25.22539 | 64.64620 | 34669 ft | 499 kts | 62° |
| 2026-05-04 12:53 | 25.25054 | 64.71740 | 34663 ft | 499 kts | 63° |
| 2026-05-04 12:54 | 25.27558 | 64.78848 | 34668 ft | 499 kts | 63° |
| 2026-05-04 12:54 | 25.30064 | 64.85973 | 34661 ft | 499 kts | 63° |
| 2026-05-04 12:55 | 25.32573 | 64.93113 | 34659 ft | 499 kts | 62° |
| 2026-05-04 12:55 | 25.35094 | 65.00309 | 34670 ft | 499 kts | 62° |
| 2026-05-04 12:56 | 25.37589 | 65.07438 | 34667 ft | 500 kts | 63° |
| 2026-05-04 12:56 | 25.40092 | 65.14613 | 34677 ft | 500 kts | 62° |
| 2026-05-04 12:57 | 25.42579 | 65.21746 | 34691 ft | 499 kts | 62° |
| 2026-05-04 12:57 | 25.45067 | 65.28894 | 34710 ft | 499 kts | 62° |
| 2026-05-04 12:58 | 25.47537 | 65.36002 | 34720 ft | 499 kts | 62° |
| 2026-05-04 12:58 | 25.50022 | 65.43173 | 34711 ft | 499 kts | 62° |
| 2026-05-04 12:59 | 25.52495 | 65.50317 | 34699 ft | 499 kts | 62° |
| 2026-05-04 12:59 | 25.54959 | 65.57447 | 34689 ft | 499 kts | 62° |
| 2026-05-04 13:00 | 25.57440 | 65.64640 | 34683 ft | 499 kts | 62° |
| 2026-05-04 13:00 | 25.59911 | 65.71819 | 34686 ft | 499 kts | 62° |
| 2026-05-04 13:01 | 25.62370 | 65.78979 | 34686 ft | 499 kts | 62° |
| 2026-05-04 13:01 | 25.64816 | 65.86110 | 34687 ft | 499 kts | 63° |
| 2026-05-04 13:02 | 25.67285 | 65.93325 | 34682 ft | 498 kts | 62° |
| 2026-05-04 13:02 | 25.69732 | 66.00485 | 34682 ft | 498 kts | 62° |
| 2026-05-04 13:03 | 25.72187 | 66.07680 | 34681 ft | 499 kts | 62° |
| 2026-05-04 13:03 | 25.74637 | 66.14877 | 34670 ft | 498 kts | 62° |
| 2026-05-04 13:04 | 25.77074 | 66.22051 | 34659 ft | 499 kts | 62° |
| 2026-05-04 13:04 | 25.79520 | 66.29263 | 34651 ft | 498 kts | 62° |
| 2026-05-04 13:05 | 25.81958 | 66.36464 | 34651 ft | 499 kts | 62° |
| 2026-05-04 13:05 | 25.84392 | 66.43663 | 34650 ft | 499 kts | 62° |
| 2026-05-04 13:06 | 25.86809 | 66.50835 | 34652 ft | 499 kts | 62° |
| 2026-05-04 13:06 | 25.89249 | 66.58077 | 34659 ft | 500 kts | 62° |
| 2026-05-04 13:07 | 25.91670 | 66.65282 | 34687 ft | 500 kts | 62° |
| 2026-05-04 13:07 | 25.94092 | 66.72508 | 34728 ft | 499 kts | 62° |
| 2026-05-04 13:08 | 25.96502 | 66.79703 | 34749 ft | 500 kts | 62° |
| 2026-05-04 13:08 | 25.98932 | 66.86977 | 34755 ft | 501 kts | 62° |
| 2026-05-04 13:09 | 26.01339 | 66.94199 | 34751 ft | 501 kts | 62° |
| 2026-05-04 13:09 | 26.03748 | 67.01434 | 34742 ft | 500 kts | 62° |
| 2026-05-04 13:10 | 26.06153 | 67.08666 | 34754 ft | 501 kts | 62° |
| 2026-05-04 13:10 | 26.08559 | 67.15931 | 34760 ft | 501 kts | 62° |
| 2026-05-04 13:11 | 26.10959 | 67.23184 | 34766 ft | 501 kts | 62° |
| 2026-05-04 13:11 | 26.13348 | 67.30418 | 34758 ft | 500 kts | 62° |
| 2026-05-04 13:12 | 26.15733 | 67.37656 | 34742 ft | 500 kts | 62° |
| 2026-05-04 13:12 | 26.18125 | 67.44926 | 34720 ft | 501 kts | 62° |
| 2026-05-04 13:13 | 26.20512 | 67.52190 | 34692 ft | 501 kts | 62° |
| 2026-05-04 13:13 | 26.22884 | 67.59427 | 34663 ft | 500 kts | 62° |
| 2026-05-04 13:14 | 26.25264 | 67.66702 | 34636 ft | 501 kts | 62° |
| 2026-05-04 13:14 | 26.27639 | 67.73981 | 34629 ft | 500 kts | 62° |
| 2026-05-04 13:15 | 26.30004 | 67.81235 | 34626 ft | 499 kts | 62° |
| 2026-05-04 13:15 | 26.32379 | 67.88541 | 34615 ft | 500 kts | 62° |
| 2026-05-04 13:16 | 26.34752 | 67.95847 | 34610 ft | 500 kts | 62° |
| 2026-05-04 13:16 | 26.37106 | 68.03114 | 34603 ft | 498 kts | 62° |
| 2026-05-04 13:17 | 26.39463 | 68.10400 | 34599 ft | 499 kts | 62° |
| 2026-05-04 13:17 | 26.41832 | 68.17741 | 34599 ft | 500 kts | 62° |
| 2026-05-04 13:18 | 26.44183 | 68.25040 | 34596 ft | 499 kts | 62° |
| 2026-05-04 13:18 | 26.46536 | 68.32366 | 34593 ft | 499 kts | 62° |